sensor_id;sensor_type;location;lat;lon;timestamp;P1;durP1;ratioP1;P2;durP2;ratioP2
1366;SDS011;16877;48.810;9.282;2022-08-07T00:01:24;2.97;;;1.93;;
1366;SDS011;16877;48.810;9.282;2022-08-07T00:03:51;5.80;;;2.40;;
1366;SDS011;16877;48.810;9.282;2022-08-07T00:06:18;3.27;;;2.20;;
1366;SDS011;16877;48.810;9.282;2022-08-07T00:08:45;3.63;;;2.13;;
1366;SDS011;16877;48.810;9.282;2022-08-07T00:11:11;5.60;;;2.23;;
1366;SDS011;16877;48.810;9.282;2022-08-07T00:13:38;4.10;;;2.30;;
1366;SDS011;16877;48.810;9.282;2022-08-07T00:16:08;2.53;;;2.00;;
1366;SDS011;16877;48.810;9.282;2022-08-07T00:18:36;2.87;;;2.20;;
1366;SDS011;16877;48.810;9.282;2022-08-07T00:21:04;3.00;;;1.97;;
1366;SDS011;16877;48.810;9.282;2022-08-07T00:23:32;2.53;;;1.90;;
1366;SDS011;16877;48.810;9.282;2022-08-07T00:26:01;3.73;;;2.20;;
1366;SDS011;16877;48.810;9.282;2022-08-07T00:28:29;3.23;;;2.20;;
1366;SDS011;16877;48.810;9.282;2022-08-07T00:30:57;3.50;;;2.20;;
1366;SDS011;16877;48.810;9.282;2022-08-07T00:33:24;3.40;;;2.20;;
1366;SDS011;16877;48.810;9.282;2022-08-07T00:35:54;3.10;;;1.83;;
1366;SDS011;16877;48.810;9.282;2022-08-07T00:38:21;2.63;;;1.87;;
1366;SDS011;16877;48.810;9.282;2022-08-07T00:40:48;3.40;;;2.00;;
1366;SDS011;16877;48.810;9.282;2022-08-07T00:43:15;3.40;;;2.10;;
1366;SDS011;16877;48.810;9.282;2022-08-07T00:45:42;2.70;;;1.70;;
1366;SDS011;16877;48.810;9.282;2022-08-07T00:48:10;3.00;;;2.20;;
1366;SDS011;16877;48.810;9.282;2022-08-07T00:50:37;2.43;;;1.63;;
1366;SDS011;16877;48.810;9.282;2022-08-07T00:53:06;3.77;;;2.30;;
1366;SDS011;16877;48.810;9.282;2022-08-07T00:55:32;3.20;;;2.00;;
1366;SDS011;16877;48.810;9.282;2022-08-07T00:57:59;3.40;;;2.20;;
1366;SDS011;16877;48.810;9.282;2022-08-07T01:00:27;2.93;;;2.00;;
1366;SDS011;16877;48.810;9.282;2022-08-07T01:02:53;2.30;;;1.37;;
1366;SDS011;16877;48.810;9.282;2022-08-07T01:05:20;3.10;;;1.60;;
1366;SDS011;16877;48.810;9.282;2022-08-07T01:07:48;3.53;;;1.53;;
1366;SDS011;16877;48.810;9.282;2022-08-07T01:10:16;3.77;;;1.90;;
1366;SDS011;16877;48.810;9.282;2022-08-07T01:12:43;2.60;;;1.70;;
1366;SDS011;16877;48.810;9.282;2022-08-07T01:15:10;2.70;;;1.83;;
1366;SDS011;16877;48.810;9.282;2022-08-07T01:17:38;2.90;;;1.67;;
1366;SDS011;16877;48.810;9.282;2022-08-07T01:20:06;3.47;;;1.57;;
1366;SDS011;16877;48.810;9.282;2022-08-07T01:22:36;3.17;;;2.10;;
1366;SDS011;16877;48.810;9.282;2022-08-07T01:25:04;3.00;;;1.50;;
1366;SDS011;16877;48.810;9.282;2022-08-07T01:27:32;2.37;;;1.63;;
1366;SDS011;16877;48.810;9.282;2022-08-07T01:29:59;2.43;;;1.50;;
1366;SDS011;16877;48.810;9.282;2022-08-07T01:32:26;3.50;;;1.80;;
1366;SDS011;16877;48.810;9.282;2022-08-07T01:34:53;3.33;;;1.87;;
1366;SDS011;16877;48.810;9.282;2022-08-07T01:37:19;4.70;;;2.13;;
1366;SDS011;16877;48.810;9.282;2022-08-07T01:39:48;4.20;;;1.40;;
1366;SDS011;16877;48.810;9.282;2022-08-07T01:42:15;2.63;;;1.37;;
1366;SDS011;16877;48.810;9.282;2022-08-07T01:44:42;3.10;;;1.70;;
1366;SDS011;16877;48.810;9.282;2022-08-07T01:47:09;5.43;;;1.73;;
1366;SDS011;16877;48.810;9.282;2022-08-07T01:49:37;4.17;;;2.27;;
1366;SDS011;16877;48.810;9.282;2022-08-07T01:52:04;3.00;;;1.87;;
1366;SDS011;16877;48.810;9.282;2022-08-07T01:54:33;2.70;;;1.87;;
1366;SDS011;16877;48.810;9.282;2022-08-07T01:57:04;2.70;;;1.80;;
1366;SDS011;16877;48.810;9.282;2022-08-07T01:59:34;2.87;;;1.73;;
1366;SDS011;16877;48.810;9.282;2022-08-07T02:02:09;2.90;;;1.80;;
1366;SDS011;16877;48.810;9.282;2022-08-07T02:04:39;3.30;;;2.07;;
1366;SDS011;16877;48.810;9.282;2022-08-07T02:07:09;4.93;;;2.10;;
1366;SDS011;16877;48.810;9.282;2022-08-07T02:09:38;2.70;;;2.07;;
1366;SDS011;16877;48.810;9.282;2022-08-07T02:12:08;3.60;;;2.03;;
1366;SDS011;16877;48.810;9.282;2022-08-07T02:14:43;3.00;;;2.20;;
1366;SDS011;16877;48.810;9.282;2022-08-07T02:17:13;2.83;;;2.10;;
1366;SDS011;16877;48.810;9.282;2022-08-07T02:19:41;3.17;;;2.03;;
1366;SDS011;16877;48.810;9.282;2022-08-07T02:22:10;3.80;;;1.93;;
1366;SDS011;16877;48.810;9.282;2022-08-07T02:24:39;3.30;;;1.80;;
1366;SDS011;16877;48.810;9.282;2022-08-07T02:27:10;3.43;;;1.77;;
1366;SDS011;16877;48.810;9.282;2022-08-07T02:29:41;2.33;;;1.50;;
1366;SDS011;16877;48.810;9.282;2022-08-07T02:32:09;3.00;;;1.70;;
1366;SDS011;16877;48.810;9.282;2022-08-07T02:34:36;2.30;;;1.50;;
1366;SDS011;16877;48.810;9.282;2022-08-07T02:37:05;2.13;;;1.43;;
1366;SDS011;16877;48.810;9.282;2022-08-07T02:39:33;2.47;;;1.50;;
1366;SDS011;16877;48.810;9.282;2022-08-07T02:42:02;2.10;;;1.43;;
1366;SDS011;16877;48.810;9.282;2022-08-07T02:44:30;3.70;;;1.53;;
1366;SDS011;16877;48.810;9.282;2022-08-07T02:46:58;4.60;;;2.30;;
1366;SDS011;16877;48.810;9.282;2022-08-07T02:49:27;2.90;;;1.73;;
1366;SDS011;16877;48.810;9.282;2022-08-07T02:51:54;5.80;;;2.90;;
1366;SDS011;16877;48.810;9.282;2022-08-07T02:54:22;3.80;;;1.90;;
1366;SDS011;16877;48.810;9.282;2022-08-07T02:56:52;2.60;;;1.70;;
1366;SDS011;16877;48.810;9.282;2022-08-07T02:59:22;3.83;;;2.17;;
1366;SDS011;16877;48.810;9.282;2022-08-07T03:01:52;2.33;;;1.40;;
1366;SDS011;16877;48.810;9.282;2022-08-07T03:04:20;2.97;;;1.30;;
1366;SDS011;16877;48.810;9.282;2022-08-07T03:06:49;3.83;;;1.70;;
1366;SDS011;16877;48.810;9.282;2022-08-07T03:09:17;6.33;;;1.57;;
1366;SDS011;16877;48.810;9.282;2022-08-07T03:11:45;2.70;;;1.70;;
1366;SDS011;16877;48.810;9.282;2022-08-07T03:14:13;2.90;;;2.00;;
1366;SDS011;16877;48.810;9.282;2022-08-07T03:16:40;3.30;;;2.30;;
1366;SDS011;16877;48.810;9.282;2022-08-07T03:19:09;2.60;;;1.80;;
1366;SDS011;16877;48.810;9.282;2022-08-07T03:21:36;3.67;;;1.90;;
1366;SDS011;16877;48.810;9.282;2022-08-07T03:24:03;2.97;;;1.53;;
1366;SDS011;16877;48.810;9.282;2022-08-07T03:26:31;2.77;;;1.70;;
1366;SDS011;16877;48.810;9.282;2022-08-07T03:29:01;2.70;;;1.90;;
1366;SDS011;16877;48.810;9.282;2022-08-07T03:31:28;3.27;;;1.80;;
1366;SDS011;16877;48.810;9.282;2022-08-07T03:33:58;2.53;;;1.90;;
1366;SDS011;16877;48.810;9.282;2022-08-07T03:36:28;2.70;;;1.80;;
1366;SDS011;16877;48.810;9.282;2022-08-07T03:38:56;3.90;;;1.70;;
1366;SDS011;16877;48.810;9.282;2022-08-07T03:41:27;2.80;;;1.77;;
1366;SDS011;16877;48.810;9.282;2022-08-07T03:43:55;3.30;;;1.57;;
1366;SDS011;16877;48.810;9.282;2022-08-07T03:46:23;3.03;;;1.60;;
1366;SDS011;16877;48.810;9.282;2022-08-07T03:48:51;2.60;;;1.50;;
1366;SDS011;16877;48.810;9.282;2022-08-07T03:51:18;2.67;;;1.47;;
1366;SDS011;16877;48.810;9.282;2022-08-07T03:53:47;2.70;;;1.53;;
1366;SDS011;16877;48.810;9.282;2022-08-07T03:56:17;2.43;;;1.57;;
1366;SDS011;16877;48.810;9.282;2022-08-07T03:58:45;2.83;;;1.63;;
1366;SDS011;16877;48.810;9.282;2022-08-07T04:01:13;3.60;;;1.70;;
1366;SDS011;16877;48.810;9.282;2022-08-07T04:03:41;2.87;;;1.67;;
1366;SDS011;16877;48.810;9.282;2022-08-07T04:06:08;2.40;;;1.53;;
1366;SDS011;16877;48.810;9.282;2022-08-07T04:08:35;3.30;;;1.47;;
1366;SDS011;16877;48.810;9.282;2022-08-07T04:11:05;2.50;;;1.73;;
1366;SDS011;16877;48.810;9.282;2022-08-07T04:13:33;2.00;;;1.30;;
1366;SDS011;16877;48.810;9.282;2022-08-07T04:16:00;2.53;;;1.60;;
1366;SDS011;16877;48.810;9.282;2022-08-07T04:18:27;2.73;;;1.60;;
1366;SDS011;16877;48.810;9.282;2022-08-07T04:20:54;2.60;;;1.20;;
1366;SDS011;16877;48.810;9.282;2022-08-07T04:23:21;2.30;;;1.20;;
1366;SDS011;16877;48.810;9.282;2022-08-07T04:25:50;2.90;;;1.33;;
1366;SDS011;16877;48.810;9.282;2022-08-07T04:28:19;3.00;;;1.50;;
1366;SDS011;16877;48.810;9.282;2022-08-07T04:30:46;3.30;;;1.47;;
1366;SDS011;16877;48.810;9.282;2022-08-07T04:33:14;2.20;;;1.60;;
1366;SDS011;16877;48.810;9.282;2022-08-07T04:35:42;2.90;;;1.77;;
1366;SDS011;16877;48.810;9.282;2022-08-07T04:38:09;2.87;;;1.57;;
1366;SDS011;16877;48.810;9.282;2022-08-07T04:40:37;2.77;;;1.80;;
1366;SDS011;16877;48.810;9.282;2022-08-07T04:43:05;3.40;;;1.77;;
1366;SDS011;16877;48.810;9.282;2022-08-07T04:45:36;2.17;;;1.57;;
1366;SDS011;16877;48.810;9.282;2022-08-07T04:48:07;2.10;;;1.40;;
1366;SDS011;16877;48.810;9.282;2022-08-07T04:50:42;2.40;;;1.50;;
1366;SDS011;16877;48.810;9.282;2022-08-07T04:53:18;2.70;;;1.77;;
1366;SDS011;16877;48.810;9.282;2022-08-07T04:55:52;2.27;;;1.50;;
1366;SDS011;16877;48.810;9.282;2022-08-07T04:58:25;3.10;;;1.80;;
1366;SDS011;16877;48.810;9.282;2022-08-07T05:01:01;3.87;;;1.73;;
1366;SDS011;16877;48.810;9.282;2022-08-07T05:03:34;2.80;;;1.30;;
1366;SDS011;16877;48.810;9.282;2022-08-07T05:06:06;4.03;;;1.90;;
1366;SDS011;16877;48.810;9.282;2022-08-07T05:08:39;3.17;;;1.83;;
1366;SDS011;16877;48.810;9.282;2022-08-07T05:11:12;3.17;;;1.87;;
1366;SDS011;16877;48.810;9.282;2022-08-07T05:13:43;2.23;;;1.40;;
1366;SDS011;16877;48.810;9.282;2022-08-07T05:16:16;3.03;;;1.60;;
1366;SDS011;16877;48.810;9.282;2022-08-07T05:18:47;2.80;;;1.70;;
1366;SDS011;16877;48.810;9.282;2022-08-07T05:21:19;2.53;;;1.73;;
1366;SDS011;16877;48.810;9.282;2022-08-07T05:23:50;3.33;;;1.70;;
1366;SDS011;16877;48.810;9.282;2022-08-07T05:26:22;2.30;;;1.50;;
1366;SDS011;16877;48.810;9.282;2022-08-07T05:28:52;3.40;;;1.57;;
1366;SDS011;16877;48.810;9.282;2022-08-07T05:31:22;2.90;;;1.50;;
1366;SDS011;16877;48.810;9.282;2022-08-07T05:33:50;2.13;;;1.30;;
1366;SDS011;16877;48.810;9.282;2022-08-07T05:36:18;2.30;;;1.87;;
1366;SDS011;16877;48.810;9.282;2022-08-07T05:38:47;2.23;;;1.40;;
1366;SDS011;16877;48.810;9.282;2022-08-07T05:41:16;2.63;;;1.77;;
1366;SDS011;16877;48.810;9.282;2022-08-07T05:43:45;3.07;;;1.70;;
1366;SDS011;16877;48.810;9.282;2022-08-07T05:46:13;2.63;;;1.27;;
1366;SDS011;16877;48.810;9.282;2022-08-07T05:48:42;2.43;;;1.63;;
1366;SDS011;16877;48.810;9.282;2022-08-07T05:51:10;2.67;;;1.67;;
1366;SDS011;16877;48.810;9.282;2022-08-07T05:53:37;2.90;;;1.30;;
1366;SDS011;16877;48.810;9.282;2022-08-07T05:56:04;2.80;;;1.57;;
1366;SDS011;16877;48.810;9.282;2022-08-07T05:58:34;3.90;;;1.77;;
1366;SDS011;16877;48.810;9.282;2022-08-07T06:01:01;2.97;;;1.50;;
1366;SDS011;16877;48.810;9.282;2022-08-07T06:03:29;3.03;;;1.80;;
1366;SDS011;16877;48.810;9.282;2022-08-07T06:05:59;3.00;;;1.73;;
1366;SDS011;16877;48.810;9.282;2022-08-07T06:08:26;2.80;;;1.80;;
1366;SDS011;16877;48.810;9.282;2022-08-07T06:10:54;2.60;;;1.73;;
1366;SDS011;16877;48.810;9.282;2022-08-07T06:13:20;4.40;;;1.80;;
1366;SDS011;16877;48.810;9.282;2022-08-07T06:15:48;2.40;;;1.90;;
1366;SDS011;16877;48.810;9.282;2022-08-07T06:18:15;4.73;;;2.10;;
1366;SDS011;16877;48.810;9.282;2022-08-07T06:20:42;3.43;;;2.73;;
1366;SDS011;16877;48.810;9.282;2022-08-07T06:23:11;2.70;;;2.00;;
1366;SDS011;16877;48.810;9.282;2022-08-07T06:25:39;3.00;;;2.37;;
1366;SDS011;16877;48.810;9.282;2022-08-07T06:28:07;4.57;;;1.90;;
1366;SDS011;16877;48.810;9.282;2022-08-07T06:30:36;2.90;;;1.90;;
1366;SDS011;16877;48.810;9.282;2022-08-07T06:33:04;3.27;;;2.70;;
1366;SDS011;16877;48.810;9.282;2022-08-07T06:35:31;2.60;;;2.07;;
1366;SDS011;16877;48.810;9.282;2022-08-07T06:37:59;3.17;;;1.87;;
1366;SDS011;16877;48.810;9.282;2022-08-07T06:40:27;2.50;;;1.97;;
1366;SDS011;16877;48.810;9.282;2022-08-07T06:42:55;3.67;;;2.03;;
1366;SDS011;16877;48.810;9.282;2022-08-07T06:45:23;3.60;;;2.80;;
1366;SDS011;16877;48.810;9.282;2022-08-07T06:47:50;3.10;;;2.30;;
1366;SDS011;16877;48.810;9.282;2022-08-07T06:50:16;3.63;;;1.80;;
1366;SDS011;16877;48.810;9.282;2022-08-07T06:52:45;2.70;;;2.23;;
1366;SDS011;16877;48.810;9.282;2022-08-07T06:55:19;2.50;;;2.00;;
1366;SDS011;16877;48.810;9.282;2022-08-07T06:57:50;3.23;;;2.30;;
1366;SDS011;16877;48.810;9.282;2022-08-07T07:00:18;2.90;;;2.27;;
1366;SDS011;16877;48.810;9.282;2022-08-07T07:02:45;5.43;;;2.27;;
1366;SDS011;16877;48.810;9.282;2022-08-07T07:05:13;3.03;;;2.40;;
1366;SDS011;16877;48.810;9.282;2022-08-07T07:07:40;2.90;;;2.13;;
1366;SDS011;16877;48.810;9.282;2022-08-07T07:10:10;3.63;;;2.10;;
1366;SDS011;16877;48.810;9.282;2022-08-07T07:12:40;3.37;;;2.13;;
1366;SDS011;16877;48.810;9.282;2022-08-07T07:15:15;3.70;;;2.37;;
1366;SDS011;16877;48.810;9.282;2022-08-07T07:17:47;3.03;;;2.27;;
1366;SDS011;16877;48.810;9.282;2022-08-07T07:20:19;3.40;;;2.10;;
1366;SDS011;16877;48.810;9.282;2022-08-07T07:22:50;4.73;;;2.57;;
1366;SDS011;16877;48.810;9.282;2022-08-07T07:25:19;3.10;;;2.77;;
1366;SDS011;16877;48.810;9.282;2022-08-07T07:27:47;3.10;;;2.50;;
1366;SDS011;16877;48.810;9.282;2022-08-07T07:30:19;4.20;;;2.40;;
1366;SDS011;16877;48.810;9.282;2022-08-07T07:32:49;2.60;;;2.20;;
1366;SDS011;16877;48.810;9.282;2022-08-07T07:35:18;2.77;;;2.20;;
1366;SDS011;16877;48.810;9.282;2022-08-07T07:37:46;2.80;;;2.20;;
1366;SDS011;16877;48.810;9.282;2022-08-07T07:40:16;2.40;;;1.50;;
1366;SDS011;16877;48.810;9.282;2022-08-07T07:42:47;3.40;;;2.73;;
1366;SDS011;16877;48.810;9.282;2022-08-07T07:45:17;2.90;;;1.80;;
1366;SDS011;16877;48.810;9.282;2022-08-07T07:47:46;2.20;;;1.50;;
1366;SDS011;16877;48.810;9.282;2022-08-07T07:50:16;2.30;;;1.50;;
1366;SDS011;16877;48.810;9.282;2022-08-07T07:52:45;2.43;;;1.60;;
1366;SDS011;16877;48.810;9.282;2022-08-07T07:55:13;2.20;;;1.47;;
1366;SDS011;16877;48.810;9.282;2022-08-07T07:57:42;2.50;;;1.37;;
1366;SDS011;16877;48.810;9.282;2022-08-07T08:00:12;2.80;;;1.60;;
1366;SDS011;16877;48.810;9.282;2022-08-07T08:02:41;2.40;;;1.70;;
1366;SDS011;16877;48.810;9.282;2022-08-07T08:05:09;3.20;;;1.83;;
1366;SDS011;16877;48.810;9.282;2022-08-07T08:07:36;3.30;;;2.20;;
1366;SDS011;16877;48.810;9.282;2022-08-07T08:10:04;2.57;;;1.60;;
1366;SDS011;16877;48.810;9.282;2022-08-07T08:12:33;2.27;;;1.60;;
1366;SDS011;16877;48.810;9.282;2022-08-07T08:15:01;3.43;;;1.60;;
1366;SDS011;16877;48.810;9.282;2022-08-07T08:17:27;2.47;;;1.47;;
1366;SDS011;16877;48.810;9.282;2022-08-07T08:20:02;2.90;;;1.63;;
1366;SDS011;16877;48.810;9.282;2022-08-07T08:22:31;3.60;;;1.53;;
1366;SDS011;16877;48.810;9.282;2022-08-07T08:25:17;2.50;;;1.50;;
1366;SDS011;16877;48.810;9.282;2022-08-07T08:28:02;2.10;;;1.03;;
1366;SDS011;16877;48.810;9.282;2022-08-07T08:30:33;2.53;;;1.50;;
1366;SDS011;16877;48.810;9.282;2022-08-07T08:33:03;2.07;;;1.17;;
1366;SDS011;16877;48.810;9.282;2022-08-07T08:35:33;3.43;;;1.60;;
1366;SDS011;16877;48.810;9.282;2022-08-07T08:38:02;2.37;;;1.50;;
1366;SDS011;16877;48.810;9.282;2022-08-07T08:40:31;3.17;;;1.30;;
1366;SDS011;16877;48.810;9.282;2022-08-07T08:43:02;2.00;;;1.00;;
1366;SDS011;16877;48.810;9.282;2022-08-07T08:45:37;2.57;;;1.20;;
1366;SDS011;16877;48.810;9.282;2022-08-07T08:48:12;3.50;;;1.27;;
1366;SDS011;16877;48.810;9.282;2022-08-07T08:50:49;3.43;;;1.50;;
1366;SDS011;16877;48.810;9.282;2022-08-07T08:53:21;3.10;;;1.20;;
1366;SDS011;16877;48.810;9.282;2022-08-07T08:55:56;2.30;;;1.40;;
1366;SDS011;16877;48.810;9.282;2022-08-07T08:58:28;1.80;;;0.90;;
1366;SDS011;16877;48.810;9.282;2022-08-07T09:01:02;1.70;;;0.90;;
1366;SDS011;16877;48.810;9.282;2022-08-07T09:03:37;5.40;;;1.43;;
1366;SDS011;16877;48.810;9.282;2022-08-07T09:06:15;2.63;;;1.10;;
1366;SDS011;16877;48.810;9.282;2022-08-07T09:08:47;2.20;;;1.20;;
1366;SDS011;16877;48.810;9.282;2022-08-07T09:11:23;3.70;;;1.00;;
1366;SDS011;16877;48.810;9.282;2022-08-07T09:14:00;2.20;;;0.87;;
1366;SDS011;16877;48.810;9.282;2022-08-07T09:16:35;1.80;;;0.90;;
1366;SDS011;16877;48.810;9.282;2022-08-07T09:19:19;2.30;;;1.20;;
1366;SDS011;16877;48.810;9.282;2022-08-07T09:21:56;2.20;;;0.90;;
1366;SDS011;16877;48.810;9.282;2022-08-07T09:24:39;2.67;;;1.00;;
1366;SDS011;16877;48.810;9.282;2022-08-07T09:27:15;3.10;;;1.13;;
1366;SDS011;16877;48.810;9.282;2022-08-07T09:29:54;2.67;;;1.10;;
1366;SDS011;16877;48.810;9.282;2022-08-07T09:32:29;2.20;;;0.77;;
1366;SDS011;16877;48.810;9.282;2022-08-07T09:35:17;2.80;;;1.00;;
1366;SDS011;16877;48.810;9.282;2022-08-07T09:37:53;2.77;;;1.10;;
1366;SDS011;16877;48.810;9.282;2022-08-07T09:40:29;3.13;;;1.57;;
1366;SDS011;16877;48.810;9.282;2022-08-07T09:43:06;3.27;;;1.37;;
1366;SDS011;16877;48.810;9.282;2022-08-07T09:45:43;1.97;;;1.10;;
1366;SDS011;16877;48.810;9.282;2022-08-07T09:48:26;2.03;;;1.00;;
1366;SDS011;16877;48.810;9.282;2022-08-07T09:51:07;2.53;;;1.07;;
1366;SDS011;16877;48.810;9.282;2022-08-07T09:53:49;1.80;;;0.87;;
1366;SDS011;16877;48.810;9.282;2022-08-07T09:56:23;2.23;;;1.10;;
1366;SDS011;16877;48.810;9.282;2022-08-07T09:59:08;2.50;;;1.23;;
1366;SDS011;16877;48.810;9.282;2022-08-07T10:01:46;2.40;;;1.30;;
1366;SDS011;16877;48.810;9.282;2022-08-07T10:04:30;2.00;;;1.20;;
1366;SDS011;16877;48.810;9.282;2022-08-07T10:07:12;2.20;;;1.00;;
1366;SDS011;16877;48.810;9.282;2022-08-07T10:09:53;2.20;;;1.20;;
1366;SDS011;16877;48.810;9.282;2022-08-07T10:12:34;2.40;;;1.00;;
1366;SDS011;16877;48.810;9.282;2022-08-07T10:18:21;4.87;;;1.10;;
1366;SDS011;16877;48.810;9.282;2022-08-07T10:21:01;3.30;;;1.10;;
1366;SDS011;16877;48.810;9.282;2022-08-07T10:23:51;2.10;;;0.80;;
1366;SDS011;16877;48.810;9.282;2022-08-07T10:26:35;2.80;;;1.80;;
1366;SDS011;16877;48.810;9.282;2022-08-07T10:32:21;4.70;;;2.50;;
1366;SDS011;16877;48.810;9.282;2022-08-07T10:35:09;2.87;;;1.43;;
1366;SDS011;16877;48.810;9.282;2022-08-07T10:37:45;2.00;;;1.10;;
1366;SDS011;16877;48.810;9.282;2022-08-07T10:40:21;2.20;;;1.00;;
1366;SDS011;16877;48.810;9.282;2022-08-07T10:42:57;6.70;;;1.60;;
1366;SDS011;16877;48.810;9.282;2022-08-07T10:45:30;5.20;;;1.43;;
1366;SDS011;16877;48.810;9.282;2022-08-07T10:48:11;3.30;;;1.33;;
1366;SDS011;16877;48.810;9.282;2022-08-07T10:50:48;3.50;;;1.37;;
1366;SDS011;16877;48.810;9.282;2022-08-07T10:53:22;3.27;;;1.10;;
1366;SDS011;16877;48.810;9.282;2022-08-07T10:55:57;2.80;;;1.30;;
1366;SDS011;16877;48.810;9.282;2022-08-07T10:58:41;3.70;;;1.17;;
1366;SDS011;16877;48.810;9.282;2022-08-07T11:01:30;2.60;;;1.30;;
1366;SDS011;16877;48.810;9.282;2022-08-07T11:04:04;2.53;;;0.90;;
1366;SDS011;16877;48.810;9.282;2022-08-07T11:06:44;2.57;;;1.37;;
1366;SDS011;16877;48.810;9.282;2022-08-07T11:09:19;2.20;;;1.10;;
1366;SDS011;16877;48.810;9.282;2022-08-07T11:11:52;1.90;;;0.90;;
1366;SDS011;16877;48.810;9.282;2022-08-07T11:14:25;2.60;;;1.00;;
1366;SDS011;16877;48.810;9.282;2022-08-07T11:16:59;1.80;;;0.80;;
1366;SDS011;16877;48.810;9.282;2022-08-07T11:19:33;2.00;;;0.90;;
1366;SDS011;16877;48.810;9.282;2022-08-07T11:22:06;2.43;;;1.23;;
1366;SDS011;16877;48.810;9.282;2022-08-07T11:24:38;2.27;;;1.37;;
1366;SDS011;16877;48.810;9.282;2022-08-07T11:27:11;2.23;;;0.90;;
1366;SDS011;16877;48.810;9.282;2022-08-07T11:29:50;3.87;;;1.00;;
1366;SDS011;16877;48.810;9.282;2022-08-07T11:32:22;2.10;;;0.90;;
1366;SDS011;16877;48.810;9.282;2022-08-07T11:34:57;2.40;;;1.00;;
1366;SDS011;16877;48.810;9.282;2022-08-07T11:37:32;1.80;;;0.70;;
1366;SDS011;16877;48.810;9.282;2022-08-07T11:40:13;2.27;;;0.97;;
1366;SDS011;16877;48.810;9.282;2022-08-07T11:42:53;2.00;;;1.00;;
1366;SDS011;16877;48.810;9.282;2022-08-07T11:45:27;2.10;;;1.10;;
1366;SDS011;16877;48.810;9.282;2022-08-07T11:48:07;2.93;;;2.17;;
1366;SDS011;16877;48.810;9.282;2022-08-07T11:50:48;2.80;;;1.40;;
1366;SDS011;16877;48.810;9.282;2022-08-07T11:53:33;2.27;;;1.10;;
1366;SDS011;16877;48.810;9.282;2022-08-07T11:56:09;2.10;;;1.07;;
1366;SDS011;16877;48.810;9.282;2022-08-07T11:58:48;2.30;;;1.00;;
1366;SDS011;16877;48.810;9.282;2022-08-07T12:01:30;3.60;;;1.40;;
1366;SDS011;16877;48.810;9.282;2022-08-07T12:04:15;2.00;;;0.90;;
1366;SDS011;16877;48.810;9.282;2022-08-07T12:06:58;2.50;;;1.23;;
1366;SDS011;16877;48.810;9.282;2022-08-07T12:09:33;3.20;;;1.00;;
1366;SDS011;16877;48.810;9.282;2022-08-07T12:12:03;2.40;;;1.07;;
1366;SDS011;16877;48.810;9.282;2022-08-07T12:14:35;2.70;;;1.97;;
1366;SDS011;16877;48.810;9.282;2022-08-07T12:17:10;3.10;;;1.67;;
1366;SDS011;16877;48.810;9.282;2022-08-07T12:19:42;2.77;;;1.20;;
1366;SDS011;16877;48.810;9.282;2022-08-07T12:22:14;2.10;;;1.00;;
1366;SDS011;16877;48.810;9.282;2022-08-07T12:24:47;2.20;;;0.97;;
1366;SDS011;16877;48.810;9.282;2022-08-07T12:27:39;2.53;;;1.20;;
1366;SDS011;16877;48.810;9.282;2022-08-07T12:30:11;3.80;;;1.10;;
1366;SDS011;16877;48.810;9.282;2022-08-07T12:32:40;2.37;;;1.07;;
1366;SDS011;16877;48.810;9.282;2022-08-07T12:35:10;2.20;;;0.90;;
1366;SDS011;16877;48.810;9.282;2022-08-07T12:37:41;2.10;;;0.95;;
1366;SDS011;16877;48.810;9.282;2022-08-07T12:40:12;2.13;;;0.88;;
1366;SDS011;16877;48.810;9.282;2022-08-07T12:42:42;2.65;;;1.13;;
1366;SDS011;16877;48.810;9.282;2022-08-07T12:45:11;2.55;;;1.05;;
1366;SDS011;16877;48.810;9.282;2022-08-07T12:47:46;2.30;;;1.13;;
1366;SDS011;16877;48.810;9.282;2022-08-07T12:50:22;2.00;;;1.02;;
1366;SDS011;16877;48.810;9.282;2022-08-07T12:52:56;2.50;;;0.90;;
1366;SDS011;16877;48.810;9.282;2022-08-07T12:55:28;2.65;;;1.10;;
1366;SDS011;16877;48.810;9.282;2022-08-07T12:58:00;2.10;;;1.02;;
1366;SDS011;16877;48.810;9.282;2022-08-07T13:00:33;4.20;;;1.50;;
1366;SDS011;16877;48.810;9.282;2022-08-07T13:03:21;2.10;;;1.00;;
1366;SDS011;16877;48.810;9.282;2022-08-07T13:06:04;2.10;;;0.80;;
1366;SDS011;16877;48.810;9.282;2022-08-07T13:08:42;1.98;;;0.90;;
1366;SDS011;16877;48.810;9.282;2022-08-07T13:11:22;2.10;;;0.80;;
1366;SDS011;16877;48.810;9.282;2022-08-07T13:13:57;2.42;;;1.17;;
1366;SDS011;16877;48.810;9.282;2022-08-07T13:16:34;2.75;;;1.10;;
1366;SDS011;16877;48.810;9.282;2022-08-07T13:19:14;2.13;;;1.00;;
1366;SDS011;16877;48.810;9.282;2022-08-07T13:21:48;2.45;;;1.25;;
1366;SDS011;16877;48.810;9.282;2022-08-07T13:24:22;2.35;;;0.80;;
1366;SDS011;16877;48.810;9.282;2022-08-07T13:26:54;1.95;;;0.93;;
1366;SDS011;16877;48.810;9.282;2022-08-07T13:29:32;2.15;;;1.08;;
1366;SDS011;16877;48.810;9.282;2022-08-07T13:32:04;2.00;;;0.82;;
1366;SDS011;16877;48.810;9.282;2022-08-07T13:34:42;2.10;;;0.98;;
1366;SDS011;16877;48.810;9.282;2022-08-07T13:37:15;2.28;;;1.20;;
1366;SDS011;16877;48.810;9.282;2022-08-07T13:39:53;2.35;;;1.30;;
1366;SDS011;16877;48.810;9.282;2022-08-07T13:42:27;2.42;;;0.98;;
1366;SDS011;16877;48.810;9.282;2022-08-07T13:44:57;2.00;;;0.95;;
1366;SDS011;16877;48.810;9.282;2022-08-07T13:47:25;13.73;;;1.02;;
1366;SDS011;16877;48.810;9.282;2022-08-07T13:49:56;2.20;;;0.77;;
1366;SDS011;16877;48.810;9.282;2022-08-07T13:52:25;2.10;;;0.80;;
1366;SDS011;16877;48.810;9.282;2022-08-07T13:54:54;1.90;;;0.80;;
1366;SDS011;16877;48.810;9.282;2022-08-07T13:57:24;1.90;;;0.70;;
1366;SDS011;16877;48.810;9.282;2022-08-07T13:59:52;3.13;;;1.10;;
1366;SDS011;16877;48.810;9.282;2022-08-07T14:02:22;1.98;;;0.80;;
1366;SDS011;16877;48.810;9.282;2022-08-07T14:04:51;2.75;;;1.00;;
1366;SDS011;16877;48.810;9.282;2022-08-07T14:07:23;1.92;;;0.80;;
1366;SDS011;16877;48.810;9.282;2022-08-07T14:09:54;2.78;;;1.10;;
1366;SDS011;16877;48.810;9.282;2022-08-07T14:12:24;2.53;;;0.70;;
1366;SDS011;16877;48.810;9.282;2022-08-07T14:14:57;2.00;;;0.88;;
1366;SDS011;16877;48.810;9.282;2022-08-07T14:17:28;1.83;;;0.70;;
1366;SDS011;16877;48.810;9.282;2022-08-07T14:19:58;2.10;;;0.93;;
1366;SDS011;16877;48.810;9.282;2022-08-07T14:22:30;2.13;;;1.25;;
1366;SDS011;16877;48.810;9.282;2022-08-07T14:24:59;2.67;;;1.27;;
1366;SDS011;16877;48.810;9.282;2022-08-07T14:27:32;2.00;;;0.95;;
1366;SDS011;16877;48.810;9.282;2022-08-07T14:30:03;1.90;;;0.80;;
1366;SDS011;16877;48.810;9.282;2022-08-07T14:32:40;2.40;;;1.20;;
1366;SDS011;16877;48.810;9.282;2022-08-07T14:35:14;2.30;;;1.05;;
1366;SDS011;16877;48.810;9.282;2022-08-07T14:37:44;2.10;;;0.90;;
1366;SDS011;16877;48.810;9.282;2022-08-07T14:40:15;1.90;;;0.82;;
1366;SDS011;16877;48.810;9.282;2022-08-07T14:42:42;2.90;;;0.88;;
1366;SDS011;16877;48.810;9.282;2022-08-07T14:45:17;2.30;;;1.00;;
1366;SDS011;16877;48.810;9.282;2022-08-07T14:47:44;1.90;;;0.90;;
1366;SDS011;16877;48.810;9.282;2022-08-07T14:50:15;2.97;;;1.40;;
1366;SDS011;16877;48.810;9.282;2022-08-07T14:52:44;2.25;;;1.00;;
1366;SDS011;16877;48.810;9.282;2022-08-07T14:55:13;2.58;;;1.15;;
1366;SDS011;16877;48.810;9.282;2022-08-07T14:57:40;2.10;;;0.90;;
1366;SDS011;16877;48.810;9.282;2022-08-07T15:00:11;2.00;;;0.98;;
1366;SDS011;16877;48.810;9.282;2022-08-07T15:02:40;2.47;;;1.02;;
1366;SDS011;16877;48.810;9.282;2022-08-07T15:05:12;2.00;;;0.73;;
1366;SDS011;16877;48.810;9.282;2022-08-07T15:07:42;2.13;;;1.10;;
1366;SDS011;16877;48.810;9.282;2022-08-07T15:10:15;2.03;;;1.00;;
1366;SDS011;16877;48.810;9.282;2022-08-07T15:12:42;1.90;;;0.90;;
1366;SDS011;16877;48.810;9.282;2022-08-07T15:15:11;2.45;;;1.20;;
1366;SDS011;16877;48.810;9.282;2022-08-07T15:17:51;1.85;;;0.75;;
1366;SDS011;16877;48.810;9.282;2022-08-07T15:20:24;1.90;;;0.80;;
1366;SDS011;16877;48.810;9.282;2022-08-07T15:22:54;2.92;;;0.70;;
1366;SDS011;16877;48.810;9.282;2022-08-07T15:25:24;1.90;;;0.80;;
1366;SDS011;16877;48.810;9.282;2022-08-07T15:27:56;2.10;;;1.00;;
1366;SDS011;16877;48.810;9.282;2022-08-07T15:30:26;3.03;;;0.93;;
1366;SDS011;16877;48.810;9.282;2022-08-07T15:32:55;2.28;;;0.85;;